OAI weather

Bagram Air Base
Bagram, Parwan Province, Afghanistan

Public forecast

Using degrees Celsius for public forecast. Weather courtesy of forecast.io.

Closest aviation weather report (METAR) to Bagram Air Base

Closest report is Hamid Karzai International Airport, 23.0 nm (42.5 km) S. Retrieved 2019/12/08 19:50 UTC (57 minutes ago):

OAKB 081950Z VRB01KT 1600 FU NSC 01/M04 Q1025 NOSIG RMK A3027 YLO YLO

Aviation forecast (TAF) for Bagram Air Base

Retrieved 2019/12/08 15:02 UTC (6 hours ago):

TAF OAIX 081500Z 0815/0921 VRB04KT 8000 HZ SCT180 BKN200 QNH3023INS BECMG 0819/0820 VRB04KT 6000 HZ SCT200 QNH3024INS BECMG 0900/0901 VRB04KT 5000 HZ BKN120 BKN180 QNH3022INS TEMPO 0902/0904 4000 HZ BECMG 0903/0904 VRB04KT 3200 HZ BKN100 BKN180 621008 QNH3022INS TEMPO 0904/0906 2800 HZ BECMG 0907/0908 VRB04KT 6000 HZ BKN080 BKN180 620809 QNH3018INS BECMG 0909/0910 VRB06KT 9000 HZ SCT050 BKN080 BKN180 620809 QNH3016INS TX11/0910Z TNM01/0901Z